sensor_id;sensor_type;location;lat;lon;timestamp;P1;durP1;ratioP1;P2;durP2;ratioP2
45848;SDS011;31567;54.600;9.842;2023-03-01T00:01:58;33.67;;;19.73;;
45848;SDS011;31567;54.600;9.842;2023-03-01T00:05:43;89.45;;;20.60;;
45848;SDS011;31567;54.600;9.842;2023-03-01T00:09:24;71.93;;;19.37;;
45848;SDS011;31567;54.600;9.842;2023-03-01T00:13:03;90.80;;;20.45;;
45848;SDS011;31567;54.600;9.842;2023-03-01T00:16:44;192.52;;;21.10;;
45848;SDS011;31567;54.600;9.842;2023-03-01T00:20:24;193.93;;;19.30;;
45848;SDS011;31567;54.600;9.842;2023-03-01T00:24:04;169.80;;;17.77;;
45848;SDS011;31567;54.600;9.842;2023-03-01T00:27:43;238.85;;;19.80;;
45848;SDS011;31567;54.600;9.842;2023-03-01T00:31:24;161.23;;;17.33;;
45848;SDS011;31567;54.600;9.842;2023-03-01T00:35:08;350.15;;;20.45;;
45848;SDS011;31567;54.600;9.842;2023-03-01T00:38:47;343.20;;;21.13;;
45848;SDS011;31567;54.600;9.842;2023-03-01T00:42:27;328.27;;;19.52;;
45848;SDS011;31567;54.600;9.842;2023-03-01T00:46:08;275.80;;;18.50;;
45848;SDS011;31567;54.600;9.842;2023-03-01T00:49:52;306.98;;;20.23;;
45848;SDS011;31567;54.600;9.842;2023-03-01T00:53:31;193.40;;;18.27;;
45848;SDS011;31567;54.600;9.842;2023-03-01T00:57:11;179.82;;;17.63;;
45848;SDS011;31567;54.600;9.842;2023-03-01T01:00:50;112.68;;;16.23;;
45848;SDS011;31567;54.600;9.842;2023-03-01T01:04:31;168.95;;;16.67;;
45848;SDS011;31567;54.600;9.842;2023-03-01T01:08:11;187.93;;;16.67;;
45848;SDS011;31567;54.600;9.842;2023-03-01T01:11:51;176.30;;;15.48;;
45848;SDS011;31567;54.600;9.842;2023-03-01T01:15:34;157.43;;;15.48;;
45848;SDS011;31567;54.600;9.842;2023-03-01T01:19:14;82.43;;;13.23;;
45848;SDS011;31567;54.600;9.842;2023-03-01T01:22:54;77.55;;;12.68;;
45848;SDS011;31567;54.600;9.842;2023-03-01T01:26:34;112.03;;;13.55;;
45848;SDS011;31567;54.600;9.842;2023-03-01T01:30:13;115.82;;;13.38;;
45848;SDS011;31567;54.600;9.842;2023-03-01T01:33:55;117.53;;;12.88;;
45848;SDS011;31567;54.600;9.842;2023-03-01T01:37:35;128.35;;;13.85;;
45848;SDS011;31567;54.600;9.842;2023-03-01T01:41:15;139.73;;;14.45;;
45848;SDS011;31567;54.600;9.842;2023-03-01T01:49:05;109.60;;;12.50;;
45848;SDS011;31567;54.600;9.842;2023-03-01T01:52:54;62.75;;;11.38;;
45848;SDS011;31567;54.600;9.842;2023-03-01T01:56:34;124.10;;;12.70;;
45848;SDS011;31567;54.600;9.842;2023-03-01T02:00:17;129.98;;;13.18;;
45848;SDS011;31567;54.600;9.842;2023-03-01T02:03:58;101.45;;;11.60;;
45848;SDS011;31567;54.600;9.842;2023-03-01T02:07:39;79.43;;;11.48;;
45848;SDS011;31567;54.600;9.842;2023-03-01T02:11:19;66.60;;;10.85;;
45848;SDS011;31567;54.600;9.842;2023-03-01T02:14:59;73.28;;;10.60;;
45848;SDS011;31567;54.600;9.842;2023-03-01T02:18:39;77.95;;;10.23;;
45848;SDS011;31567;54.600;9.842;2023-03-01T02:22:30;77.38;;;11.55;;
45848;SDS011;31567;54.600;9.842;2023-03-01T02:26:12;56.20;;;11.77;;
45848;SDS011;31567;54.600;9.842;2023-03-01T02:29:56;49.17;;;9.98;;
45848;SDS011;31567;54.600;9.842;2023-03-01T02:33:36;82.45;;;11.57;;
45848;SDS011;31567;54.600;9.842;2023-03-01T02:37:17;46.05;;;11.02;;
45848;SDS011;31567;54.600;9.842;2023-03-01T02:40:59;67.22;;;11.60;;
45848;SDS011;31567;54.600;9.842;2023-03-01T02:44:41;79.88;;;11.07;;
45848;SDS011;31567;54.600;9.842;2023-03-01T02:48:20;39.08;;;10.07;;
45848;SDS011;31567;54.600;9.842;2023-03-01T02:55:58;85.93;;;11.40;;
45848;SDS011;31567;54.600;9.842;2023-03-01T02:59:38;102.60;;;12.07;;
45848;SDS011;31567;54.600;9.842;2023-03-01T03:03:20;103.97;;;13.07;;
45848;SDS011;31567;54.600;9.842;2023-03-01T03:07:00;110.15;;;12.77;;
45848;SDS011;31567;54.600;9.842;2023-03-01T03:10:40;140.20;;;12.05;;
45848;SDS011;31567;54.600;9.842;2023-03-01T03:14:22;128.50;;;12.52;;
45848;SDS011;31567;54.600;9.842;2023-03-01T03:18:03;100.70;;;11.10;;
45848;SDS011;31567;54.600;9.842;2023-03-01T03:21:44;30.75;;;9.38;;
45848;SDS011;31567;54.600;9.842;2023-03-01T03:25:26;98.40;;;11.20;;
45848;SDS011;31567;54.600;9.842;2023-03-01T03:29:06;128.52;;;11.57;;
45848;SDS011;31567;54.600;9.842;2023-03-01T03:32:46;190.60;;;12.73;;
45848;SDS011;31567;54.600;9.842;2023-03-01T03:36:31;160.60;;;12.27;;
45848;SDS011;31567;54.600;9.842;2023-03-01T03:40:10;150.32;;;12.73;;
45848;SDS011;31567;54.600;9.842;2023-03-01T03:43:54;74.63;;;10.45;;
45848;SDS011;31567;54.600;9.842;2023-03-01T03:47:33;174.52;;;11.73;;
45848;SDS011;31567;54.600;9.842;2023-03-01T03:51:13;124.53;;;10.55;;
45848;SDS011;31567;54.600;9.842;2023-03-01T03:54:54;135.85;;;10.75;;
45848;SDS011;31567;54.600;9.842;2023-03-01T03:58:34;184.77;;;10.95;;
45848;SDS011;31567;54.600;9.842;2023-03-01T04:02:14;92.05;;;8.95;;
45848;SDS011;31567;54.600;9.842;2023-03-01T04:06:01;131.80;;;10.52;;
45848;SDS011;31567;54.600;9.842;2023-03-01T04:09:41;110.30;;;9.38;;
45848;SDS011;31567;54.600;9.842;2023-03-01T04:13:21;126.63;;;10.07;;
45848;SDS011;31567;54.600;9.842;2023-03-01T04:17:04;121.85;;;10.13;;
45848;SDS011;31567;54.600;9.842;2023-03-01T04:20:44;137.20;;;10.00;;
45848;SDS011;31567;54.600;9.842;2023-03-01T04:24:24;108.43;;;9.93;;
45848;SDS011;31567;54.600;9.842;2023-03-01T04:28:04;94.93;;;9.02;;
45848;SDS011;31567;54.600;9.842;2023-03-01T04:31:44;91.20;;;8.65;;
45848;SDS011;31567;54.600;9.842;2023-03-01T04:35:24;84.00;;;9.30;;
45848;SDS011;31567;54.600;9.842;2023-03-01T04:39:03;52.15;;;8.35;;
45848;SDS011;31567;54.600;9.842;2023-03-01T04:42:51;20.65;;;6.72;;
45848;SDS011;31567;54.600;9.842;2023-03-01T04:46:30;28.98;;;6.88;;
45848;SDS011;31567;54.600;9.842;2023-03-01T04:50:10;31.77;;;6.07;;
45848;SDS011;31567;54.600;9.842;2023-03-01T04:53:51;31.92;;;6.65;;
45848;SDS011;31567;54.600;9.842;2023-03-01T04:57:31;38.42;;;6.75;;
45848;SDS011;31567;54.600;9.842;2023-03-01T05:01:14;27.17;;;6.75;;
45848;SDS011;31567;54.600;9.842;2023-03-01T05:04:56;44.80;;;7.15;;
45848;SDS011;31567;54.600;9.842;2023-03-01T05:08:39;42.42;;;7.50;;
45848;SDS011;31567;54.600;9.842;2023-03-01T05:12:20;29.08;;;6.90;;
45848;SDS011;31567;54.600;9.842;2023-03-01T05:16:00;71.18;;;8.70;;
45848;SDS011;31567;54.600;9.842;2023-03-01T05:19:40;107.57;;;9.25;;
45848;SDS011;31567;54.600;9.842;2023-03-01T05:23:21;80.60;;;8.95;;
45848;SDS011;31567;54.600;9.842;2023-03-01T05:27:02;69.63;;;9.40;;
45848;SDS011;31567;54.600;9.842;2023-03-01T05:30:41;111.55;;;8.77;;
45848;SDS011;31567;54.600;9.842;2023-03-01T05:34:24;61.47;;;8.23;;
45848;SDS011;31567;54.600;9.842;2023-03-01T05:38:05;63.88;;;8.27;;
45848;SDS011;31567;54.600;9.842;2023-03-01T05:41:44;55.25;;;7.88;;
45848;SDS011;31567;54.600;9.842;2023-03-01T05:45:25;71.07;;;8.32;;
45848;SDS011;31567;54.600;9.842;2023-03-01T05:49:05;56.58;;;7.88;;
45848;SDS011;31567;54.600;9.842;2023-03-01T05:52:48;37.05;;;6.72;;
45848;SDS011;31567;54.600;9.842;2023-03-01T05:56:29;21.90;;;7.07;;
45848;SDS011;31567;54.600;9.842;2023-03-01T06:00:12;9.02;;;6.05;;
45848;SDS011;31567;54.600;9.842;2023-03-01T06:03:53;18.23;;;6.20;;
45848;SDS011;31567;54.600;9.842;2023-03-01T06:07:33;25.88;;;6.32;;
45848;SDS011;31567;54.600;9.842;2023-03-01T06:11:15;24.17;;;7.35;;
45848;SDS011;31567;54.600;9.842;2023-03-01T06:14:54;31.00;;;6.03;;
45848;SDS011;31567;54.600;9.842;2023-03-01T06:18:34;50.15;;;7.43;;
45848;SDS011;31567;54.600;9.842;2023-03-01T06:22:14;33.80;;;7.22;;
45848;SDS011;31567;54.600;9.842;2023-03-01T06:25:54;26.52;;;6.40;;
45848;SDS011;31567;54.600;9.842;2023-03-01T06:29:33;60.72;;;7.13;;
45848;SDS011;31567;54.600;9.842;2023-03-01T06:33:13;60.97;;;7.63;;
45848;SDS011;31567;54.600;9.842;2023-03-01T06:36:53;35.28;;;6.85;;
45848;SDS011;31567;54.600;9.842;2023-03-01T06:40:32;38.03;;;7.20;;
45848;SDS011;31567;54.600;9.842;2023-03-01T06:44:14;98.32;;;8.02;;
45848;SDS011;31567;54.600;9.842;2023-03-01T06:48:00;20.92;;;6.55;;
45848;SDS011;31567;54.600;9.842;2023-03-01T06:51:41;72.15;;;7.38;;
45848;SDS011;31567;54.600;9.842;2023-03-01T06:55:21;32.20;;;6.45;;
45848;SDS011;31567;54.600;9.842;2023-03-01T06:59:00;37.40;;;6.70;;
45848;SDS011;31567;54.600;9.842;2023-03-01T07:02:41;34.95;;;6.35;;
45848;SDS011;31567;54.600;9.842;2023-03-01T07:06:21;37.83;;;6.60;;
45848;SDS011;31567;54.600;9.842;2023-03-01T07:10:01;17.55;;;6.60;;
45848;SDS011;31567;54.600;9.842;2023-03-01T07:13:41;10.63;;;6.97;;
45848;SDS011;31567;54.600;9.842;2023-03-01T07:17:21;10.23;;;7.28;;
45848;SDS011;31567;54.600;9.842;2023-03-01T07:21:07;19.48;;;7.70;;
45848;SDS011;31567;54.600;9.842;2023-03-01T07:28:27;9.40;;;6.70;;
45848;SDS011;31567;54.600;9.842;2023-03-01T07:32:06;8.95;;;6.43;;
45848;SDS011;31567;54.600;9.842;2023-03-01T07:35:46;8.38;;;6.60;;
45848;SDS011;31567;54.600;9.842;2023-03-01T07:39:25;8.02;;;6.38;;
45848;SDS011;31567;54.600;9.842;2023-03-01T07:43:05;10.23;;;7.45;;
45848;SDS011;31567;54.600;9.842;2023-03-01T07:46:44;9.15;;;7.32;;
45848;SDS011;31567;54.600;9.842;2023-03-01T07:50:24;8.75;;;7.45;;
45848;SDS011;31567;54.600;9.842;2023-03-01T07:54:04;10.15;;;7.75;;
45848;SDS011;31567;54.600;9.842;2023-03-01T07:57:43;11.25;;;8.63;;
45848;SDS011;31567;54.600;9.842;2023-03-01T08:01:23;10.57;;;8.65;;
45848;SDS011;31567;54.600;9.842;2023-03-01T08:05:03;10.48;;;8.38;;
45848;SDS011;31567;54.600;9.842;2023-03-01T08:08:43;10.82;;;8.95;;
45848;SDS011;31567;54.600;9.842;2023-03-01T08:12:23;11.90;;;9.05;;
45848;SDS011;31567;54.600;9.842;2023-03-01T08:16:07;10.38;;;8.55;;
45848;SDS011;31567;54.600;9.842;2023-03-01T08:19:49;9.75;;;8.73;;
45848;SDS011;31567;54.600;9.842;2023-03-01T08:23:28;8.45;;;6.95;;
45848;SDS011;31567;54.600;9.842;2023-03-01T08:27:08;10.30;;;7.47;;
45848;SDS011;31567;54.600;9.842;2023-03-01T08:30:48;8.98;;;7.25;;
45848;SDS011;31567;54.600;9.842;2023-03-01T08:34:28;8.20;;;6.82;;
45848;SDS011;31567;54.600;9.842;2023-03-01T08:38:07;9.45;;;8.18;;
45848;SDS011;31567;54.600;9.842;2023-03-01T08:41:47;8.30;;;7.13;;
45848;SDS011;31567;54.600;9.842;2023-03-01T08:45:27;12.98;;;8.27;;
45848;SDS011;31567;54.600;9.842;2023-03-01T08:49:07;11.38;;;8.75;;
45848;SDS011;31567;54.600;9.842;2023-03-01T08:52:50;14.77;;;7.82;;
45848;SDS011;31567;54.600;9.842;2023-03-01T08:56:29;20.70;;;6.82;;
45848;SDS011;31567;54.600;9.842;2023-03-01T09:00:10;41.58;;;7.90;;
45848;SDS011;31567;54.600;9.842;2023-03-01T09:03:50;24.23;;;6.65;;
45848;SDS011;31567;54.600;9.842;2023-03-01T09:07:29;59.60;;;7.32;;
45848;SDS011;31567;54.600;9.842;2023-03-01T09:11:10;62.95;;;6.00;;
45848;SDS011;31567;54.600;9.842;2023-03-01T09:14:52;19.00;;;4.68;;
45848;SDS011;31567;54.600;9.842;2023-03-01T09:18:32;15.18;;;4.97;;
45848;SDS011;31567;54.600;9.842;2023-03-01T09:22:12;24.95;;;5.82;;
45848;SDS011;31567;54.600;9.842;2023-03-01T09:25:52;35.50;;;6.18;;
45848;SDS011;31567;54.600;9.842;2023-03-01T09:29:31;52.45;;;6.40;;
45848;SDS011;31567;54.600;9.842;2023-03-01T09:33:11;30.48;;;6.40;;
45848;SDS011;31567;54.600;9.842;2023-03-01T09:36:53;29.63;;;6.50;;
45848;SDS011;31567;54.600;9.842;2023-03-01T09:40:33;20.65;;;4.90;;
45848;SDS011;31567;54.600;9.842;2023-03-01T09:48:22;22.85;;;3.97;;
45848;SDS011;31567;54.600;9.842;2023-03-01T10:08:21;41.03;;;4.40;;
45848;SDS011;31567;54.600;9.842;2023-03-01T10:12:09;10.02;;;4.68;;
45848;SDS011;31567;54.600;9.842;2023-03-01T10:15:53;11.68;;;4.60;;
45848;SDS011;31567;54.600;9.842;2023-03-01T10:19:38;10.88;;;4.15;;
45848;SDS011;31567;54.600;9.842;2023-03-01T10:23:20;21.63;;;4.78;;
45848;SDS011;31567;54.600;9.842;2023-03-01T10:27:08;7.43;;;4.25;;
45848;SDS011;31567;54.600;9.842;2023-03-01T10:31:00;23.02;;;4.47;;
45848;SDS011;31567;54.600;9.842;2023-03-01T10:34:40;6.90;;;3.75;;
45848;SDS011;31567;54.600;9.842;2023-03-01T10:38:20;7.22;;;4.13;;
45848;SDS011;31567;54.600;9.842;2023-03-01T10:42:00;6.50;;;3.22;;
45848;SDS011;31567;54.600;9.842;2023-03-01T10:45:42;5.22;;;4.20;;
45848;SDS011;31567;54.600;9.842;2023-03-01T10:49:22;4.13;;;3.72;;
45848;SDS011;31567;54.600;9.842;2023-03-01T10:53:04;5.60;;;4.93;;
45848;SDS011;31567;54.600;9.842;2023-03-01T10:56:48;12.77;;;4.18;;
45848;SDS011;31567;54.600;9.842;2023-03-01T11:00:31;5.22;;;3.95;;
45848;SDS011;31567;54.600;9.842;2023-03-01T11:04:12;7.22;;;5.72;;
45848;SDS011;31567;54.600;9.842;2023-03-01T11:07:56;7.47;;;4.80;;
45848;SDS011;31567;54.600;9.842;2023-03-01T11:11:37;5.35;;;4.47;;
45848;SDS011;31567;54.600;9.842;2023-03-01T11:15:25;4.93;;;4.43;;
45848;SDS011;31567;54.600;9.842;2023-03-01T11:22:56;5.60;;;4.72;;
45848;SDS011;31567;54.600;9.842;2023-03-01T11:26:41;6.20;;;5.47;;
45848;SDS011;31567;54.600;9.842;2023-03-01T11:30:24;7.38;;;6.45;;
45848;SDS011;31567;54.600;9.842;2023-03-01T11:34:12;6.15;;;5.55;;
45848;SDS011;31567;54.600;9.842;2023-03-01T11:41:46;6.00;;;5.40;;
45848;SDS011;31567;54.600;9.842;2023-03-01T11:45:57;5.35;;;3.75;;
45848;SDS011;31567;54.600;9.842;2023-03-01T11:49:39;4.32;;;3.92;;
45848;SDS011;31567;54.600;9.842;2023-03-01T11:57:26;6.20;;;5.40;;
45848;SDS011;31567;54.600;9.842;2023-03-01T12:21:38;6.57;;;5.57;;
45848;SDS011;31567;54.600;9.842;2023-03-01T12:29:52;9.43;;;6.78;;
45848;SDS011;31567;54.600;9.842;2023-03-01T12:37:22;9.23;;;7.60;;
45848;SDS011;31567;54.600;9.842;2023-03-01T12:49:25;10.40;;;8.60;;
45848;SDS011;31567;54.600;9.842;2023-03-01T12:53:15;10.60;;;8.90;;
45848;SDS011;31567;54.600;9.842;2023-03-01T12:57:00;11.98;;;9.88;;
45848;SDS011;31567;54.600;9.842;2023-03-01T13:01:08;11.93;;;9.82;;
45848;SDS011;31567;54.600;9.842;2023-03-01T13:05:18;12.25;;;9.02;;
45848;SDS011;31567;54.600;9.842;2023-03-01T13:24:29;13.73;;;11.40;;
45848;SDS011;31567;54.600;9.842;2023-03-01T13:32:44;14.25;;;11.18;;
45848;SDS011;31567;54.600;9.842;2023-03-01T13:43:57;23.83;;;16.38;;
45848;SDS011;31567;54.600;9.842;2023-03-01T13:47:36;23.55;;;16.88;;
45848;SDS011;31567;54.600;9.842;2023-03-01T13:51:20;21.65;;;14.88;;
45848;SDS011;31567;54.600;9.842;2023-03-01T13:55:05;19.98;;;15.00;;
45848;SDS011;31567;54.600;9.842;2023-03-01T13:59:05;25.55;;;16.25;;
45848;SDS011;31567;54.600;9.842;2023-03-01T14:06:45;21.20;;;14.73;;
45848;SDS011;31567;54.600;9.842;2023-03-01T14:10:42;21.95;;;15.68;;
45848;SDS011;31567;54.600;9.842;2023-03-01T14:18:25;19.98;;;13.75;;
45848;SDS011;31567;54.600;9.842;2023-03-01T14:22:20;25.60;;;14.38;;
45848;SDS011;31567;54.600;9.842;2023-03-01T14:26:02;23.50;;;13.77;;
45848;SDS011;31567;54.600;9.842;2023-03-01T14:29:42;24.10;;;15.20;;
45848;SDS011;31567;54.600;9.842;2023-03-01T14:33:30;31.70;;;15.32;;
45848;SDS011;31567;54.600;9.842;2023-03-01T14:40:59;34.95;;;15.82;;
45848;SDS011;31567;54.600;9.842;2023-03-01T14:44:43;42.45;;;17.23;;
45848;SDS011;31567;54.600;9.842;2023-03-01T14:48:24;43.45;;;18.27;;
45848;SDS011;31567;54.600;9.842;2023-03-01T14:52:52;52.10;;;17.92;;
45848;SDS011;31567;54.600;9.842;2023-03-01T14:56:13;37.95;;;18.73;;
45848;SDS011;31567;54.600;9.842;2023-03-01T15:00:00;31.90;;;18.23;;
45848;SDS011;31567;54.600;9.842;2023-03-01T15:03:46;36.17;;;19.23;;
45848;SDS011;31567;54.600;9.842;2023-03-01T15:07:28;103.07;;;21.60;;
45848;SDS011;31567;54.600;9.842;2023-03-01T15:14:52;52.80;;;19.67;;
45848;SDS011;31567;54.600;9.842;2023-03-01T15:18:33;61.05;;;20.88;;
45848;SDS011;31567;54.600;9.842;2023-03-01T15:22:14;32.00;;;18.95;;
45848;SDS011;31567;54.600;9.842;2023-03-01T15:25:56;49.70;;;19.88;;
45848;SDS011;31567;54.600;9.842;2023-03-01T15:29:36;36.67;;;20.48;;
45848;SDS011;31567;54.600;9.842;2023-03-01T15:33:25;34.70;;;18.40;;
45848;SDS011;31567;54.600;9.842;2023-03-01T15:41:37;27.17;;;16.15;;
45848;SDS011;31567;54.600;9.842;2023-03-01T15:45:26;23.08;;;13.88;;
45848;SDS011;31567;54.600;9.842;2023-03-01T15:49:24;22.88;;;14.88;;
45848;SDS011;31567;54.600;9.842;2023-03-01T15:53:18;22.90;;;14.27;;
45848;SDS011;31567;54.600;9.842;2023-03-01T15:56:58;21.30;;;13.57;;
45848;SDS011;31567;54.600;9.842;2023-03-01T16:00:37;22.80;;;14.70;;
45848;SDS011;31567;54.600;9.842;2023-03-01T16:04:18;19.88;;;13.90;;
45848;SDS011;31567;54.600;9.842;2023-03-01T16:08:02;21.50;;;14.50;;
45848;SDS011;31567;54.600;9.842;2023-03-01T16:11:42;21.17;;;15.38;;
45848;SDS011;31567;54.600;9.842;2023-03-01T16:19:03;21.80;;;13.90;;
45848;SDS011;31567;54.600;9.842;2023-03-01T16:22:42;20.35;;;14.00;;
45848;SDS011;31567;54.600;9.842;2023-03-01T16:26:23;18.08;;;13.30;;
45848;SDS011;31567;54.600;9.842;2023-03-01T16:30:02;21.58;;;14.80;;
45848;SDS011;31567;54.600;9.842;2023-03-01T16:33:43;17.90;;;12.95;;
45848;SDS011;31567;54.600;9.842;2023-03-01T16:37:28;25.02;;;15.40;;
45848;SDS011;31567;54.600;9.842;2023-03-01T16:41:16;20.63;;;14.15;;
45848;SDS011;31567;54.600;9.842;2023-03-01T16:44:57;21.33;;;15.05;;
45848;SDS011;31567;54.600;9.842;2023-03-01T16:48:37;21.73;;;15.18;;
45848;SDS011;31567;54.600;9.842;2023-03-01T16:52:17;27.75;;;15.98;;
45848;SDS011;31567;54.600;9.842;2023-03-01T16:55:57;24.95;;;17.05;;
45848;SDS011;31567;54.600;9.842;2023-03-01T16:59:37;33.30;;;21.80;;
45848;SDS011;31567;54.600;9.842;2023-03-01T17:03:17;28.88;;;20.35;;
45848;SDS011;31567;54.600;9.842;2023-03-01T17:06:57;26.55;;;17.50;;
45848;SDS011;31567;54.600;9.842;2023-03-01T17:10:36;20.77;;;15.05;;
45848;SDS011;31567;54.600;9.842;2023-03-01T17:14:16;21.75;;;15.38;;
45848;SDS011;31567;54.600;9.842;2023-03-01T17:17:55;23.83;;;17.65;;
45848;SDS011;31567;54.600;9.842;2023-03-01T17:21:35;27.35;;;20.20;;
45848;SDS011;31567;54.600;9.842;2023-03-01T17:25:15;27.60;;;17.90;;
45848;SDS011;31567;54.600;9.842;2023-03-01T17:28:55;26.15;;;17.60;;
45848;SDS011;31567;54.600;9.842;2023-03-01T17:32:35;28.45;;;18.20;;
45848;SDS011;31567;54.600;9.842;2023-03-01T17:36:15;23.70;;;16.63;;
45848;SDS011;31567;54.600;9.842;2023-03-01T17:39:54;26.35;;;18.02;;
45848;SDS011;31567;54.600;9.842;2023-03-01T17:43:34;30.75;;;20.17;;
45848;SDS011;31567;54.600;9.842;2023-03-01T17:47:13;30.48;;;19.60;;
45848;SDS011;31567;54.600;9.842;2023-03-01T17:50:53;33.85;;;20.70;;
45848;SDS011;31567;54.600;9.842;2023-03-01T17:54:33;29.63;;;17.00;;
45848;SDS011;31567;54.600;9.842;2023-03-01T17:58:13;24.65;;;16.83;;
45848;SDS011;31567;54.600;9.842;2023-03-01T18:01:53;31.52;;;17.42;;
45848;SDS011;31567;54.600;9.842;2023-03-01T18:05:35;30.42;;;16.83;;
45848;SDS011;31567;54.600;9.842;2023-03-01T18:09:16;25.38;;;15.98;;
45848;SDS011;31567;54.600;9.842;2023-03-01T18:12:55;27.55;;;16.65;;
45848;SDS011;31567;54.600;9.842;2023-03-01T18:16:35;32.75;;;18.40;;
45848;SDS011;31567;54.600;9.842;2023-03-01T18:20:17;28.02;;;18.52;;
45848;SDS011;31567;54.600;9.842;2023-03-01T18:23:57;35.42;;;19.50;;
45848;SDS011;31567;54.600;9.842;2023-03-01T18:27:39;28.88;;;17.13;;
45848;SDS011;31567;54.600;9.842;2023-03-01T18:31:20;30.52;;;17.02;;
45848;SDS011;31567;54.600;9.842;2023-03-01T18:35:00;40.22;;;18.33;;
45848;SDS011;31567;54.600;9.842;2023-03-01T18:38:40;28.45;;;17.63;;
45848;SDS011;31567;54.600;9.842;2023-03-01T18:42:19;50.67;;;18.48;;
45848;SDS011;31567;54.600;9.842;2023-03-01T18:45:59;38.42;;;19.67;;
45848;SDS011;31567;54.600;9.842;2023-03-01T18:49:39;33.25;;;18.90;;
45848;SDS011;31567;54.600;9.842;2023-03-01T18:53:19;35.70;;;20.55;;
45848;SDS011;31567;54.600;9.842;2023-03-01T18:56:58;42.70;;;20.58;;
45848;SDS011;31567;54.600;9.842;2023-03-01T19:00:38;37.00;;;21.02;;
45848;SDS011;31567;54.600;9.842;2023-03-01T19:04:17;86.47;;;22.65;;
45848;SDS011;31567;54.600;9.842;2023-03-01T19:07:57;39.10;;;21.60;;
45848;SDS011;31567;54.600;9.842;2023-03-01T19:11:36;196.25;;;26.95;;
45848;SDS011;31567;54.600;9.842;2023-03-01T19:15:16;245.25;;;26.77;;
45848;SDS011;31567;54.600;9.842;2023-03-01T19:18:56;117.40;;;23.88;;
45848;SDS011;31567;54.600;9.842;2023-03-01T19:22:38;226.27;;;25.65;;
45848;SDS011;31567;54.600;9.842;2023-03-01T19:26:20;180.48;;;22.98;;
45848;SDS011;31567;54.600;9.842;2023-03-01T19:30:05;278.90;;;26.20;;
45848;SDS011;31567;54.600;9.842;2023-03-01T19:33:45;49.40;;;21.35;;
45848;SDS011;31567;54.600;9.842;2023-03-01T19:37:25;79.20;;;22.75;;
45848;SDS011;31567;54.600;9.842;2023-03-01T19:41:05;226.40;;;26.10;;
45848;SDS011;31567;54.600;9.842;2023-03-01T19:44:47;85.65;;;23.00;;
45848;SDS011;31567;54.600;9.842;2023-03-01T19:48:26;259.02;;;27.35;;
45848;SDS011;31567;54.600;9.842;2023-03-01T19:52:07;162.13;;;28.13;;
45848;SDS011;31567;54.600;9.842;2023-03-01T19:55:46;125.53;;;25.35;;
45848;SDS011;31567;54.600;9.842;2023-03-01T19:59:27;111.32;;;24.23;;
45848;SDS011;31567;54.600;9.842;2023-03-01T20:03:07;137.68;;;25.75;;
45848;SDS011;31567;54.600;9.842;2023-03-01T20:06:47;196.07;;;27.63;;
45848;SDS011;31567;54.600;9.842;2023-03-01T20:10:27;76.60;;;23.08;;
45848;SDS011;31567;54.600;9.842;2023-03-01T20:14:08;78.97;;;24.85;;
45848;SDS011;31567;54.600;9.842;2023-03-01T20:17:50;63.20;;;23.45;;
45848;SDS011;31567;54.600;9.842;2023-03-01T20:21:29;58.10;;;22.45;;
45848;SDS011;31567;54.600;9.842;2023-03-01T20:25:11;353.42;;;28.63;;
45848;SDS011;31567;54.600;9.842;2023-03-01T20:28:52;252.43;;;26.67;;
45848;SDS011;31567;54.600;9.842;2023-03-01T20:32:32;143.82;;;24.13;;
45848;SDS011;31567;54.600;9.842;2023-03-01T20:36:13;329.73;;;29.55;;
45848;SDS011;31567;54.600;9.842;2023-03-01T20:39:53;269.05;;;26.92;;
45848;SDS011;31567;54.600;9.842;2023-03-01T20:43:33;99.47;;;24.10;;
45848;SDS011;31567;54.600;9.842;2023-03-01T20:47:13;379.88;;;32.60;;
45848;SDS011;31567;54.600;9.842;2023-03-01T20:50:54;152.23;;;25.08;;
45848;SDS011;31567;54.600;9.842;2023-03-01T20:54:34;132.38;;;23.55;;
45848;SDS011;31567;54.600;9.842;2023-03-01T20:58:14;103.95;;;21.85;;
45848;SDS011;31567;54.600;9.842;2023-03-01T21:01:53;48.92;;;21.17;;
45848;SDS011;31567;54.600;9.842;2023-03-01T21:05:33;51.83;;;21.27;;
45848;SDS011;31567;54.600;9.842;2023-03-01T21:09:13;126.68;;;22.75;;
45848;SDS011;31567;54.600;9.842;2023-03-01T21:12:52;138.32;;;24.15;;
45848;SDS011;31567;54.600;9.842;2023-03-01T21:16:32;120.68;;;24.35;;
45848;SDS011;31567;54.600;9.842;2023-03-01T21:20:12;59.10;;;21.40;;
45848;SDS011;31567;54.600;9.842;2023-03-01T21:23:53;89.10;;;21.95;;
45848;SDS011;31567;54.600;9.842;2023-03-01T21:27:36;102.45;;;22.63;;
45848;SDS011;31567;54.600;9.842;2023-03-01T21:31:18;59.72;;;20.95;;
45848;SDS011;31567;54.600;9.842;2023-03-01T21:35:09;77.60;;;21.98;;
45848;SDS011;31567;54.600;9.842;2023-03-01T21:38:49;140.82;;;23.30;;
45848;SDS011;31567;54.600;9.842;2023-03-01T21:42:30;156.38;;;22.52;;
45848;SDS011;31567;54.600;9.842;2023-03-01T21:46:12;453.02;;;29.38;;
45848;SDS011;31567;54.600;9.842;2023-03-01T21:49:53;240.38;;;23.95;;
45848;SDS011;31567;54.600;9.842;2023-03-01T21:53:33;472.90;;;29.98;;
45848;SDS011;31567;54.600;9.842;2023-03-01T21:57:14;390.48;;;28.33;;
45848;SDS011;31567;54.600;9.842;2023-03-01T22:00:54;340.02;;;26.65;;
45848;SDS011;31567;54.600;9.842;2023-03-01T22:04:34;369.90;;;28.40;;
45848;SDS011;31567;54.600;9.842;2023-03-01T22:08:13;253.23;;;23.73;;
45848;SDS011;31567;54.600;9.842;2023-03-01T22:11:53;363.80;;;26.23;;
45848;SDS011;31567;54.600;9.842;2023-03-01T22:19:21;369.73;;;28.85;;
45848;SDS011;31567;54.600;9.842;2023-03-01T22:23:00;383.90;;;29.90;;
45848;SDS011;31567;54.600;9.842;2023-03-01T22:26:41;382.40;;;29.10;;
45848;SDS011;31567;54.600;9.842;2023-03-01T22:30:22;448.33;;;33.55;;
45848;SDS011;31567;54.600;9.842;2023-03-01T22:34:02;404.00;;;31.20;;
45848;SDS011;31567;54.600;9.842;2023-03-01T22:37:42;508.85;;;34.78;;
45848;SDS011;31567;54.600;9.842;2023-03-01T22:41:21;137.45;;;26.20;;
45848;SDS011;31567;54.600;9.842;2023-03-01T22:45:01;174.25;;;25.08;;
45848;SDS011;31567;54.600;9.842;2023-03-01T22:48:40;106.47;;;22.85;;
45848;SDS011;31567;54.600;9.842;2023-03-01T22:52:20;180.75;;;24.77;;
45848;SDS011;31567;54.600;9.842;2023-03-01T22:56:08;125.38;;;23.77;;
45848;SDS011;31567;54.600;9.842;2023-03-01T22:59:49;166.85;;;23.98;;
45848;SDS011;31567;54.600;9.842;2023-03-01T23:03:29;129.80;;;22.85;;
45848;SDS011;31567;54.600;9.842;2023-03-01T23:07:08;367.10;;;29.55;;
45848;SDS011;31567;54.600;9.842;2023-03-01T23:10:48;342.85;;;29.50;;
45848;SDS011;31567;54.600;9.842;2023-03-01T23:14:28;375.13;;;29.88;;
45848;SDS011;31567;54.600;9.842;2023-03-01T23:18:09;418.10;;;30.58;;
45848;SDS011;31567;54.600;9.842;2023-03-01T23:21:49;165.65;;;23.58;;
45848;SDS011;31567;54.600;9.842;2023-03-01T23:25:28;473.77;;;33.83;;
45848;SDS011;31567;54.600;9.842;2023-03-01T23:29:08;300.05;;;25.95;;
45848;SDS011;31567;54.600;9.842;2023-03-01T23:32:47;554.88;;;33.60;;
45848;SDS011;31567;54.600;9.842;2023-03-01T23:36:31;480.75;;;29.80;;
45848;SDS011;31567;54.600;9.842;2023-03-01T23:40:11;256.63;;;24.33;;
45848;SDS011;31567;54.600;9.842;2023-03-01T23:43:52;455.95;;;29.80;;
45848;SDS011;31567;54.600;9.842;2023-03-01T23:47:34;559.08;;;31.60;;
45848;SDS011;31567;54.600;9.842;2023-03-01T23:51:14;336.90;;;25.23;;
45848;SDS011;31567;54.600;9.842;2023-03-01T23:54:55;415.25;;;25.90;;